Time;durP1;ratioP1;P1;durP2;ratioP2;P2;SDS_P1;SDS_P2;PMS_P1;PMS_P2;Temp;Humidity;BMP_temperature;BMP_pressure;BME280_temperature;BME280_humidity;BME280_pressure;Samples;Min_cycle;Max_cycle;Signal;HPM_P1;HPM_P2
2022/09/20 00:00:40;;;;;;;;;5.00;4.00;;;;;;;;5068173;27;45405;-72
2022/09/20 00:03:05;;;;;;;;;4.00;4.00;;;;;;;;5060503;28;45517;-73
2022/09/20 00:05:34;;;;;;;;;5.67;3.00;;;;;;;;5070521;27;47493;-71
2022/09/20 00:08:00;;;;;;;;;3.67;3.00;;;;;;;;5057617;27;45700;-72
2022/09/20 00:10:26;;;;;;;;;4.00;2.00;;;;;;;;5073666;28;45458;-75
2022/09/20 00:12:51;;;;;;;;;2.00;2.00;;;;;;;;5074079;27;45828;-72
2022/09/20 00:15:17;;;;;;;;;2.00;2.00;;;;;;;;5073603;27;45277;-72
2022/09/20 00:17:42;;;;;;;;;5.67;4.33;;;;;;;;5062513;28;45524;-73
2022/09/20 00:20:07;;;;;;;;;6.33;4.00;;;;;;;;5057680;27;45757;-73
2022/09/20 00:22:32;;;;;;;;;3.00;3.00;;;;;;;;5043093;28;46648;-73
2022/09/20 00:24:58;;;;;;;;;4.33;2.00;;;;;;;;5046026;28;48058;-73
2022/09/20 00:27:23;;;;;;;;;4.00;3.33;;;;;;;;5058743;27;45848;-73
2022/09/20 00:29:48;;;;;;;;;1.00;1.00;;;;;;;;5062402;27;45787;-74
2022/09/20 00:32:13;;;;;;;;;6.33;4.00;;;;;;;;5067593;27;45294;-74
2022/09/20 00:37:22;;;;;;;;;6.00;5.00;;;;;;;;5062878;27;45498;-73
2022/09/20 00:39:48;;;;;;;;;3.67;2.00;;;;;;;;5066702;27;45810;-73
2022/09/20 00:42:13;;;;;;;;;4.00;3.00;;;;;;;;5069632;27;45804;-73
2022/09/20 00:44:41;;;;;;;;;3.00;3.00;;;;;;;;5077649;27;45928;-74
2022/09/20 00:47:27;;;;;;;;;3.00;3.00;;;;;;;;5065510;27;45568;-72
2022/09/20 00:49:56;;;;;;;;;2.33;2.33;;;;;;;;5017216;27;45485;-73
2022/09/20 00:52:23;;;;;;;;;4.00;4.00;;;;;;;;5070700;27;45507;-73
2022/09/20 00:54:48;;;;;;;;;2.67;2.00;;;;;;;;5067529;27;45705;-72
2022/09/20 00:57:13;;;;;;;;;5.00;3.00;;;;;;;;5055751;28;45825;-69
2022/09/20 00:59:40;;;;;;;;;3.00;3.00;;;;;;;;5073598;28;45633;-70
2022/09/20 01:02:08;;;;;;;;;3.00;3.00;;;;;;;;5073093;27;45514;-69
2022/09/20 01:04:35;;;;;;;;;2.00;2.00;;;;;;;;5079158;27;45830;-71
2022/09/20 01:07:02;;;;;;;;;5.67;3.00;;;;;;;;5065054;27;45494;-71
2022/09/20 01:09:27;;;;;;;;;3.33;3.00;;;;;;;;5069752;27;45823;-71
2022/09/20 01:11:54;;;;;;;;;5.33;3.67;;;;;;;;5064133;27;45595;-71
2022/09/20 01:14:22;;;;;;;;;2.67;2.67;;;;;;;;5069505;27;45434;-71
2022/09/20 01:16:47;;;;;;;;;1.00;1.00;;;;;;;;5059665;28;45326;-71
2022/09/20 01:19:26;;;;;;;;;2.00;2.00;;;;;;;;5063768;28;45511;-69
2022/09/20 01:21:52;;;;;;;;;2.00;2.00;;;;;;;;5061595;27;45666;-71
2022/09/20 01:24:17;;;;;;;;;3.00;2.67;;;;;;;;5046377;28;47164;-70
2022/09/20 01:26:53;;;;;;;;;1.33;1.33;;;;;;;;5063575;27;45373;-70
2022/09/20 01:29:25;;;;;;;;;2.33;2.33;;;;;;;;5065879;28;45409;-69
2022/09/20 01:31:55;;;;;;;;;3.00;1.33;;;;;;;;5063543;27;45825;-69
2022/09/20 01:34:26;;;;;;;;;5.00;4.00;;;;;;;;5067877;28;46613;-70
2022/09/20 01:37:09;;;;;;;;;2.00;2.00;;;;;;;;5068236;27;45303;-71
2022/09/20 01:39:37;;;;;;;;;4.33;2.67;;;;;;;;5059986;27;45508;-70
2022/09/20 01:42:08;;;;;;;;;4.67;2.00;;;;;;;;5067615;27;45753;-71
2022/09/20 01:44:39;;;;;;;;;2.67;2.67;;;;;;;;5070480;28;45445;-70
2022/09/20 01:47:11;;;;;;;;;2.67;2.33;;;;;;;;5066719;27;45696;-72
2022/09/20 01:49:40;;;;;;;;;3.00;3.00;;;;;;;;5070294;28;45747;-70
2022/09/20 01:52:24;;;;;;;;;2.00;2.00;;;;;;;;5074198;27;45818;-72
2022/09/20 01:54:56;;;;;;;;;4.00;3.67;;;;;;;;5071991;27;45782;-69
2022/09/20 01:57:57;;;;;;;;;4.00;3.00;;;;;;;;5021459;28;45434;-70
2022/09/20 02:00:25;;;;;;;;;3.00;3.00;;;;;;;;4944633;28;45393;-69
2022/09/20 02:02:53;;;;;;;;;4.67;4.67;;;;;;;;5015168;28;45720;-69
2022/09/20 02:05:28;;;;;;;;;3.33;1.00;;;;;;;;5039204;28;47184;-70
2022/09/20 02:07:53;;;;;;;;;4.00;4.00;;;;;;;;5044958;28;45394;-69
2022/09/20 02:10:25;;;;;;;;;3.67;2.67;;;;;;;;5044913;28;45346;-70
2022/09/20 02:12:50;;;;;;;;;3.33;3.33;;;;;;;;5038364;28;47200;-70
2022/09/20 02:15:37;;;;;;;;;6.67;5.00;;;;;;;;5059880;28;45730;-70
2022/09/20 02:18:16;;;;;;;;;4.00;3.00;;;;;;;;5052272;28;45780;-69
2022/09/20 02:20:47;;;;;;;;;3.67;2.67;;;;;;;;5040233;28;45335;-69
2022/09/20 02:23:24;;;;;;;;;4.67;3.00;;;;;;;;5045023;28;46075;-70
2022/09/20 02:25:54;;;;;;;;;3.00;3.00;;;;;;;;5041120;28;45366;-70
2022/09/20 02:28:34;;;;;;;;;5.00;3.33;;;;;;;;5050245;28;45394;-70
2022/09/20 02:31:35;;;;;;;;;4.67;3.00;;;;;;;;5063561;28;45555;-70
2022/09/20 02:34:09;;;;;;;;;6.00;3.00;;;;;;;;4985165;28;45814;-72
2022/09/20 02:36:43;;;;;;;;;3.67;3.67;;;;;;;;5041401;28;45444;-71
2022/09/20 02:39:16;;;;;;;;;5.00;4.00;;;;;;;;5051500;28;45707;-70
2022/09/20 02:41:53;;;;;;;;;5.00;3.33;;;;;;;;5055752;28;45663;-70
2022/09/20 02:44:37;;;;;;;;;2.67;2.67;;;;;;;;5044976;28;45556;-72
2022/09/20 02:47:28;;;;;;;;;3.00;2.33;;;;;;;;5025935;28;46054;-71
2022/09/20 02:50:23;;;;;;;;;3.33;2.33;;;;;;;;5045882;28;45455;-69
2022/09/20 02:52:49;;;;;;;;;2.00;2.00;;;;;;;;5058657;28;45369;-70
2022/09/20 02:55:28;;;;;;;;;5.00;3.00;;;;;;;;5066621;27;45303;-70
2022/09/20 02:58:12;;;;;;;;;3.00;3.00;;;;;;;;5060689;27;46111;-70
2022/09/20 03:00:52;;;;;;;;;6.00;3.67;;;;;;;;5072667;27;45373;-71
2022/09/20 03:03:36;;;;;;;;;2.00;2.00;;;;;;;;5072097;27;45752;-70
2022/09/20 03:06:01;;;;;;;;;2.00;2.00;;;;;;;;5067320;28;45636;-69
2022/09/20 03:08:27;;;;;;;;;2.00;2.00;;;;;;;;5069130;27;45362;-70
2022/09/20 03:11:02;;;;;;;;;3.00;2.00;;;;;;;;5070087;28;45405;-73
2022/09/20 03:13:27;;;;;;;;;3.00;3.00;;;;;;;;5070840;27;45671;-73
2022/09/20 03:15:52;;;;;;;;;2.00;2.00;;;;;;;;5063677;28;45484;-72
2022/09/20 03:18:38;;;;;;;;;3.00;3.00;;;;;;;;5062880;28;47090;-71
2022/09/20 03:21:07;;;;;;;;;3.00;2.00;;;;;;;;5022923;28;45530;-73
2022/09/20 03:23:35;;;;;;;;;4.00;3.00;;;;;;;;5075058;27;45734;-72
2022/09/20 03:26:00;;;;;;;;;3.00;3.00;;;;;;;;5072278;28;45695;-72
2022/09/20 03:28:25;;;;;;;;;3.67;2.00;;;;;;;;5055836;28;47190;-74
2022/09/20 03:31:00;;;;;;;;;2.67;2.67;;;;;;;;5074830;27;45435;-71
2022/09/20 03:33:45;;;;;;;;;3.00;3.00;;;;;;;;5072858;27;45823;-70
2022/09/20 03:36:19;;;;;;;;;3.00;3.00;;;;;;;;5060987;27;45496;-73
2022/09/20 03:38:47;;;;;;;;;7.33;3.33;;;;;;;;5051580;27;46081;-72
2022/09/20 03:41:18;;;;;;;;;1.00;1.00;;;;;;;;5066856;27;45930;-72
2022/09/20 03:43:46;;;;;;;;;6.00;3.33;;;;;;;;5058155;27;45324;-71
2022/09/20 03:46:12;;;;;;;;;3.00;3.00;;;;;;;;5060136;28;45495;-72
2022/09/20 03:48:56;;;;;;;;;3.00;2.33;;;;;;;;5074281;27;46183;-71
2022/09/20 03:51:27;;;;;;;;;3.67;3.00;;;;;;;;5057743;27;45400;-71
2022/09/20 03:53:55;;;;;;;;;4.00;4.00;;;;;;;;5081348;27;45647;-71
2022/09/20 03:56:33;;;;;;;;;5.00;4.00;;;;;;;;5073656;27;46127;-71
2022/09/20 03:59:30;;;;;;;;;2.67;2.67;;;;;;;;5068178;27;45802;-71
2022/09/20 04:02:28;;;;;;;;;5.67;4.33;;;;;;;;5017773;27;46094;-71
2022/09/20 04:05:06;;;;;;;;;6.33;4.67;;;;;;;;5019790;27;46313;-71
2022/09/20 04:07:50;;;;;;;;;2.33;2.33;;;;;;;;5066491;27;45297;-71
2022/09/20 04:10:15;;;;;;;;;4.00;3.00;;;;;;;;5060160;27;45702;-72
2022/09/20 04:12:59;;;;;;;;;6.33;4.00;;;;;;;;5055756;27;45811;-72
2022/09/20 04:15:37;;;;;;;;;2.67;2.00;;;;;;;;5058810;27;45728;-71
2022/09/20 04:18:21;;;;;;;;;2.00;2.00;;;;;;;;5059035;27;45704;-72
2022/09/20 04:20:54;;;;;;;;;4.33;3.00;;;;;;;;5054303;27;45293;-72
2022/09/20 04:23:38;;;;;;;;;4.00;4.00;;;;;;;;5058947;27;45818;-73
2022/09/20 04:26:03;;;;;;;;;3.33;3.33;;;;;;;;5055181;27;45395;-72
2022/09/20 04:28:51;;;;;;;;;7.67;4.33;;;;;;;;5061808;27;45657;-72
2022/09/20 04:31:24;;;;;;;;;5.33;2.67;;;;;;;;5056675;27;45708;-72
2022/09/20 04:33:50;;;;;;;;;3.67;3.00;;;;;;;;5056711;27;45686;-72
2022/09/20 04:36:28;;;;;;;;;3.67;3.00;;;;;;;;5056380;27;45429;-72
2022/09/20 04:39:13;;;;;;;;;4.33;4.00;;;;;;;;5038345;27;46176;-72
2022/09/20 04:41:57;;;;;;;;;5.33;5.00;;;;;;;;5011462;27;46215;-72
2022/09/20 04:44:41;;;;;;;;;3.00;3.00;;;;;;;;5061984;27;45798;-71
2022/09/20 04:47:14;;;;;;;;;7.33;4.67;;;;;;;;5057741;27;46007;-72
2022/09/20 04:49:42;;;;;;;;;4.00;3.67;;;;;;;;5059594;28;45797;-73
2022/09/20 04:52:26;;;;;;;;;4.33;4.00;;;;;;;;5066145;27;46228;-71
2022/09/20 04:55:11;;;;;;;;;5.33;3.33;;;;;;;;5052595;28;45470;-70
2022/09/20 04:57:52;;;;;;;;;5.00;4.00;;;;;;;;5068264;28;45455;-72
2022/09/20 05:00:19;;;;;;;;;5.00;4.00;;;;;;;;5073427;27;45916;-72
2022/09/20 05:03:04;;;;;;;;;4.00;4.00;;;;;;;;5055414;28;45996;-72
2022/09/20 05:05:34;;;;;;;;;5.00;4.00;;;;;;;;5071642;27;45875;-70
2022/09/20 05:07:59;;;;;;;;;5.67;5.67;;;;;;;;5072205;28;45648;-73
2022/09/20 05:10:37;;;;;;;;;5.00;5.00;;;;;;;;5065757;27;45890;-74
2022/09/20 05:13:22;;;;;;;;;4.67;4.33;;;;;;;;5067554;28;45380;-74
2022/09/20 05:15:59;;;;;;;;;4.67;3.00;;;;;;;;5062199;27;45811;-73
2022/09/20 05:18:31;;;;;;;;;4.67;4.33;;;;;;;;5065662;27;46906;-74
2022/09/20 05:21:16;;;;;;;;;3.00;3.00;;;;;;;;5073030;28;45833;-70
2022/09/20 05:23:59;;;;;;;;;3.00;2.33;;;;;;;;5059503;27;46517;-69
2022/09/20 05:26:45;;;;;;;;;5.00;2.67;;;;;;;;5053365;27;45663;-69
2022/09/20 05:29:23;;;;;;;;;4.33;3.33;;;;;;;;5058435;28;45605;-69
2022/09/20 05:32:05;;;;;;;;;4.00;4.00;;;;;;;;5057381;28;45359;-69
2022/09/20 05:34:49;;;;;;;;;5.67;4.67;;;;;;;;5066016;28;45876;-72
2022/09/20 05:37:30;;;;;;;;;5.00;4.67;;;;;;;;5058800;27;45564;-72
2022/09/20 05:40:03;;;;;;;;;5.00;3.00;;;;;;;;5063866;28;45765;-69
2022/09/20 05:42:47;;;;;;;;;6.33;3.67;;;;;;;;5064916;27;45411;-69
2022/09/20 05:45:16;;;;;;;;;5.33;4.67;;;;;;;;5062407;27;45339;-71
2022/09/20 05:47:58;;;;;;;;;5.00;4.00;;;;;;;;5057217;27;45803;-70
2022/09/20 05:50:45;;;;;;;;;4.33;4.33;;;;;;;;5060352;27;45507;-72
2022/09/20 05:53:29;;;;;;;;;5.00;3.00;;;;;;;;5049571;28;46735;-70
2022/09/20 05:55:57;;;;;;;;;3.00;3.00;;;;;;;;5046024;28;47308;-71
2022/09/20 05:58:31;;;;;;;;;4.00;3.00;;;;;;;;5070167;27;45857;-68
2022/09/20 06:01:03;;;;;;;;;5.33;3.33;;;;;;;;5047609;28;45849;-69
2022/09/20 06:03:34;;;;;;;;;6.33;4.67;;;;;;;;5060301;27;45388;-70
2022/09/20 06:06:21;;;;;;;;;6.00;6.00;;;;;;;;5068355;27;46064;-68
2022/09/20 06:08:48;;;;;;;;;3.33;3.33;;;;;;;;5065140;27;45436;-69
2022/09/20 06:11:13;;;;;;;;;6.33;4.67;;;;;;;;5043518;27;45713;-69
2022/09/20 06:13:52;;;;;;;;;5.67;5.00;;;;;;;;5067889;27;45904;-68
2022/09/20 06:16:27;;;;;;;;;6.00;3.67;;;;;;;;5055618;27;45526;-68
2022/09/20 06:19:12;;;;;;;;;8.67;5.67;;;;;;;;5059250;28;45463;-67
2022/09/20 06:21:54;;;;;;;;;8.00;4.33;;;;;;;;5065654;27;45853;-68
2022/09/20 06:24:31;;;;;;;;;8.00;5.00;;;;;;;;5043852;28;46676;-69
2022/09/20 06:26:58;;;;;;;;;7.00;6.33;;;;;;;;5070146;27;46325;-66
2022/09/20 06:29:32;;;;;;;;;5.00;5.00;;;;;;;;5061170;28;45426;-66
2022/09/20 06:31:58;;;;;;;;;6.00;3.67;;;;;;;;5056089;27;45751;-68
2022/09/20 06:34:23;;;;;;;;;9.00;6.00;;;;;;;;5059057;27;45863;-66
2022/09/20 06:42:43;;;;;;;;;5.00;5.00;;;;;;;;5062247;27;45712;-66
2022/09/20 06:45:09;;;;;;;;;6.00;5.00;;;;;;;;5056361;28;45392;-67
2022/09/20 06:47:35;;;;;;;;;3.00;3.00;;;;;;;;5063269;28;45490;-67
2022/09/20 06:50:00;;;;;;;;;7.33;6.33;;;;;;;;5069971;27;45442;-67
2022/09/20 06:52:25;;;;;;;;;5.00;5.00;;;;;;;;5065616;27;45462;-66
2022/09/20 06:54:53;;;;;;;;;8.00;6.33;;;;;;;;5066969;27;45641;-66
2022/09/20 06:57:23;;;;;;;;;7.67;4.67;;;;;;;;5059897;27;46440;-67
2022/09/20 06:59:48;;;;;;;;;8.00;5.33;;;;;;;;5042899;28;45376;-68
2022/09/20 07:02:13;;;;;;;;;6.67;4.67;;;;;;;;5065120;28;45679;-67
2022/09/20 07:04:38;;;;;;;;;10.00;5.67;;;;;;;;5064076;27;45854;-67
2022/09/20 07:07:05;;;;;;;;;4.00;4.00;;;;;;;;5046255;27;45826;-68
2022/09/20 07:09:30;;;;;;;;;5.67;5.67;;;;;;;;5059168;27;45978;-70
2022/09/20 07:11:57;;;;;;;;;7.00;5.33;;;;;;;;5069528;27;45588;-69
2022/09/20 07:14:24;;;;;;;;;5.67;5.67;;;;;;;;5049928;28;46508;-68
2022/09/20 07:16:49;;;;;;;;;5.33;5.33;;;;;;;;5068479;28;46051;-67
2022/09/20 07:19:15;;;;;;;;;6.00;6.00;;;;;;;;5054150;28;45506;-68
2022/09/20 07:21:40;;;;;;;;;5.00;5.00;;;;;;;;5064098;27;45348;-69
2022/09/20 07:24:05;;;;;;;;;5.33;4.67;;;;;;;;5065578;28;45897;-66
2022/09/20 07:26:31;;;;;;;;;11.67;8.33;;;;;;;;5067115;27;45732;-68
2022/09/20 07:28:57;;;;;;;;;5.67;5.67;;;;;;;;5064772;27;45428;-66
2022/09/20 07:31:23;;;;;;;;;5.33;5.00;;;;;;;;5024650;27;45342;-66
2022/09/20 07:33:49;;;;;;;;;7.67;6.67;;;;;;;;5048609;28;45594;-68
2022/09/20 07:36:15;;;;;;;;;6.00;5.67;;;;;;;;5072166;27;46416;-67
2022/09/20 07:38:41;;;;;;;;;5.67;4.00;;;;;;;;5067622;28;45499;-68
2022/09/20 07:41:07;;;;;;;;;11.33;5.33;;;;;;;;5066133;27;45761;-67
2022/09/20 07:43:32;;;;;;;;;4.00;4.00;;;;;;;;5069933;28;45912;-68
2022/09/20 07:45:58;;;;;;;;;11.00;7.67;;;;;;;;5069912;27;45663;-70
2022/09/20 07:48:24;;;;;;;;;4.00;4.00;;;;;;;;5072184;27;45668;-72
2022/09/20 07:51:13;;;;;;;;;8.00;5.33;;;;;;;;5075298;27;45431;-73
2022/09/20 07:53:39;;;;;;;;;5.67;5.67;;;;;;;;5048939;28;45807;-68
2022/09/20 07:56:05;;;;;;;;;9.00;5.33;;;;;;;;5056278;27;46018;-74
2022/09/20 07:58:32;;;;;;;;;6.00;4.67;;;;;;;;5058973;28;46593;-73
2022/09/20 08:00:59;;;;;;;;;5.00;3.67;;;;;;;;5073745;27;45753;-72
2022/09/20 08:03:25;;;;;;;;;5.33;5.33;;;;;;;;5039287;28;45394;-67
2022/09/20 08:05:50;;;;;;;;;8.00;5.33;;;;;;;;5052511;28;47359;-67
2022/09/20 08:08:19;;;;;;;;;6.67;4.00;;;;;;;;5064154;28;45774;-68
2022/09/20 08:10:45;;;;;;;;;3.00;3.00;;;;;;;;5066965;28;45538;-67
2022/09/20 08:13:10;;;;;;;;;7.00;4.67;;;;;;;;5062364;27;45490;-67
2022/09/20 08:15:36;;;;;;;;;4.00;3.00;;;;;;;;5064319;28;46072;-67
2022/09/20 08:18:01;;;;;;;;;5.33;2.00;;;;;;;;5065436;27;45400;-68
2022/09/20 08:20:26;;;;;;;;;9.00;5.33;;;;;;;;5073944;27;45754;-67
2022/09/20 08:22:54;;;;;;;;;3.67;3.67;;;;;;;;5073926;27;45729;-67
2022/09/20 08:25:19;;;;;;;;;4.00;4.00;;;;;;;;5070770;27;45660;-69
2022/09/20 08:27:50;;;;;;;;;7.00;5.00;;;;;;;;5051270;28;46027;-70
2022/09/20 08:30:16;;;;;;;;;4.67;4.00;;;;;;;;5062446;27;45459;-66
2022/09/20 08:32:41;;;;;;;;;9.67;7.33;;;;;;;;5065452;27;45421;-68
2022/09/20 08:35:06;;;;;;;;;5.00;4.00;;;;;;;;5054227;28;46908;-68
2022/09/20 08:37:32;;;;;;;;;4.33;3.33;;;;;;;;5045069;28;45816;-69
2022/09/20 08:39:57;;;;;;;;;9.67;6.67;;;;;;;;5060774;27;45865;-68
2022/09/20 08:42:28;;;;;;;;;9.33;5.67;;;;;;;;5062987;28;45701;-66
2022/09/20 08:44:56;;;;;;;;;10.33;5.00;;;;;;;;5060389;27;46200;-69
2022/09/20 08:47:23;;;;;;;;;7.33;6.00;;;;;;;;5073721;28;45439;-67
2022/09/20 08:49:52;;;;;;;;;10.67;7.67;;;;;;;;5060410;27;45704;-68
2022/09/20 08:52:21;;;;;;;;;6.33;4.00;;;;;;;;5064016;28;45685;-70
2022/09/20 08:54:47;;;;;;;;;8.67;6.67;;;;;;;;5067384;27;46523;-70
2022/09/20 08:57:16;;;;;;;;;8.67;4.33;;;;;;;;5060101;28;45783;-70
2022/09/20 08:59:41;;;;;;;;;3.67;3.67;;;;;;;;5064340;28;45708;-68
2022/09/20 09:02:17;;;;;;;;;5.67;5.00;;;;;;;;5061928;27;45727;-71
2022/09/20 09:04:44;;;;;;;;;4.67;4.33;;;;;;;;5057210;27;45956;-70
2022/09/20 09:07:11;;;;;;;;;13.00;8.33;;;;;;;;5078201;27;45341;-70
2022/09/20 09:09:40;;;;;;;;;5.00;4.00;;;;;;;;5041547;28;45779;-69
2022/09/20 09:12:05;;;;;;;;;7.00;5.67;;;;;;;;5062365;27;45467;-69
2022/09/20 09:14:47;;;;;;;;;11.00;7.33;;;;;;;;5053051;27;47893;-71
2022/09/20 09:17:15;;;;;;;;;5.67;5.67;;;;;;;;5062083;27;45922;-69
2022/09/20 09:19:52;;;;;;;;;13.67;8.67;;;;;;;;5058784;27;45420;-66
2022/09/20 09:22:19;;;;;;;;;11.33;6.67;;;;;;;;5066288;27;46079;-68
2022/09/20 09:24:45;;;;;;;;;10.33;8.00;;;;;;;;5055480;28;47159;-71
2022/09/20 09:27:15;;;;;;;;;12.00;7.33;;;;;;;;5067820;27;45732;-73
2022/09/20 09:29:53;;;;;;;;;10.00;8.67;;;;;;;;5073416;28;45947;-71
2022/09/20 09:32:29;;;;;;;;;12.00;10.67;;;;;;;;5070488;28;45390;-68
2022/09/20 09:34:55;;;;;;;;;10.00;8.00;;;;;;;;5070307;27;45468;-69
2022/09/20 09:37:21;;;;;;;;;14.00;9.00;;;;;;;;5072681;27;45693;-73
2022/09/20 09:40:04;;;;;;;;;8.33;8.33;;;;;;;;5074020;27;45741;-72
2022/09/20 09:42:30;;;;;;;;;14.00;8.67;;;;;;;;5054415;27;45691;-71
2022/09/20 09:45:09;;;;;;;;;8.67;7.00;;;;;;;;5064995;28;45766;-72
2022/09/20 09:47:36;;;;;;;;;12.00;10.00;;;;;;;;5062590;28;45870;-71
2022/09/20 09:50:01;;;;;;;;;12.00;10.67;;;;;;;;5059739;27;45660;-72
2022/09/20 09:52:32;;;;;;;;;13.67;8.00;;;;;;;;5068875;28;45313;-68
2022/09/20 09:54:58;;;;;;;;;9.00;9.00;;;;;;;;5069520;27;45399;-72
2022/09/20 09:57:47;;;;;;;;;11.00;7.67;;;;;;;;5062487;28;45353;-73
2022/09/20 10:00:12;;;;;;;;;12.67;10.33;;;;;;;;5068691;28;45736;-71
2022/09/20 10:02:57;;;;;;;;;10.00;8.67;;;;;;;;5072558;28;45546;-71
2022/09/20 10:05:36;;;;;;;;;14.00;11.00;;;;;;;;5067892;27;46272;-80
2022/09/20 10:08:05;;;;;;;;;8.33;8.33;;;;;;;;5062688;28;45385;-80
2022/09/20 10:10:38;;;;;;;;;14.00;8.67;;;;;;;;5074525;27;45649;-81
2022/09/20 10:13:25;;;;;;;;;17.33;11.33;;;;;;;;5072350;28;45537;-80
2022/09/20 10:16:17;;;;;;;;;8.67;8.00;;;;;;;;5063332;28;45270;-81
2022/09/20 10:19:03;;;;;;;;;15.00;10.33;;;;;;;;5065636;27;45407;-81
2022/09/20 10:21:28;;;;;;;;;9.67;8.33;;;;;;;;5071807;27;45401;-77
2022/09/20 10:24:05;;;;;;;;;9.33;8.00;;;;;;;;5075079;27;45430;-82
2022/09/20 10:26:49;;;;;;;;;7.00;6.67;;;;;;;;5063794;27;45709;-82
2022/09/20 10:29:14;;;;;;;;;8.00;6.67;;;;;;;;5067170;27;45381;-82
2022/09/20 10:31:56;;;;;;;;;8.00;7.33;;;;;;;;5068515;28;45548;-83
2022/09/20 10:34:40;;;;;;;;;12.67;8.67;;;;;;;;5060413;27;45889;-82
2022/09/20 10:37:12;;;;;;;;;9.67;9.33;;;;;;;;5066156;27;46174;-82
2022/09/20 10:39:40;;;;;;;;;4.00;4.00;;;;;;;;5065431;27;45724;-82
2022/09/20 10:45:07;;;;;;;;;9.67;8.67;;;;;;;;5066688;27;45966;-79
2022/09/20 10:47:53;;;;;;;;;7.67;5.00;;;;;;;;5057496;27;45413;-81
2022/09/20 10:50:30;;;;;;;;;7.33;6.00;;;;;;;;5060037;27;45888;-81
2022/09/20 10:53:03;;;;;;;;;6.67;5.33;;;;;;;;5050898;28;45559;-80
2022/09/20 10:55:33;;;;;;;;;4.67;4.00;;;;;;;;5069326;27;45572;-83
2022/09/20 10:58:17;;;;;;;;;9.00;5.00;;;;;;;;5066860;27;45842;-84
2022/09/20 11:00:45;;;;;;;;;6.00;3.67;;;;;;;;5051917;27;45823;-78
2022/09/20 11:03:23;;;;;;;;;8.00;4.67;;;;;;;;5062365;27;45786;-81
2022/09/20 11:06:09;;;;;;;;;6.33;6.00;;;;;;;;5067478;27;45441;-82
2022/09/20 11:08:36;;;;;;;;;5.33;4.00;;;;;;;;5059415;27;46892;-81
2022/09/20 11:11:07;;;;;;;;;2.75;2.00;;;;;;;;5066241;27;46231;-81
2022/09/20 11:13:51;;;;;;;;;2.25;2.25;;;;;;;;5064259;27;45530;-83
2022/09/20 11:16:27;;;;;;;;;7.33;5.67;;;;;;;;5057106;28;46846;-82
2022/09/20 11:19:04;;;;;;;;;2.25;2.25;;;;;;;;5070313;28;45765;-79
2022/09/20 11:21:36;;;;;;;;;5.25;3.75;;;;;;;;5054826;28;45891;-81
2022/09/20 11:24:02;;;;;;;;;8.33;4.33;;;;;;;;5063240;27;45464;-80
2022/09/20 11:26:33;;;;;;;;;1.50;1.00;;;;;;;;5081047;27;45866;-79
2022/09/20 11:29:19;;;;;;;;;0.50;0.50;;;;;;;;5064528;27;45495;-80
2022/09/20 11:31:47;;;;;;;;;0.75;0.75;;;;;;;;5059001;27;45494;-79
2022/09/20 11:34:29;;;;;;;;;3.75;1.00;;;;;;;;5076787;27;45699;-81
2022/09/20 11:36:57;;;;;;;;;2.00;1.00;;;;;;;;5080306;27;45747;-79
2022/09/20 11:39:35;;;;;;;;;2.50;0.75;;;;;;;;5057594;28;46144;-79
2022/09/20 11:42:00;;;;;;;;;0.00;0.00;;;;;;;;5071088;27;45601;-81
2022/09/20 11:44:26;;;;;;;;;1.25;0.00;;;;;;;;5054655;28;45558;-80
2022/09/20 11:46:58;;;;;;;;;1.00;1.00;;;;;;;;5068416;28;45509;-80
2022/09/20 11:49:42;;;;;;;;;0.00;0.00;;;;;;;;5074389;27;46445;-80
2022/09/20 11:52:09;;;;;;;;;0.00;0.00;;;;;;;;5073114;27;45707;-80
2022/09/20 11:54:46;;;;;;;;;1.50;0.00;;;;;;;;5077433;27;45372;-79
2022/09/20 11:57:16;;;;;;;;;1.00;1.00;;;;;;;;5061111;28;45839;-81
2022/09/20 11:59:49;;;;;;;;;0.50;0.50;;;;;;;;5074891;27;45705;-80
2022/09/20 12:02:24;;;;;;;;;0.00;0.00;;;;;;;;5073084;27;45477;-79
2022/09/20 12:04:52;;;;;;;;;1.25;1.00;;;;;;;;5066519;27;45415;-78
2022/09/20 12:07:17;;;;;;;;;0.25;0.25;;;;;;;;5074113;27;45862;-79
2022/09/20 12:09:44;;;;;;;;;0.00;0.00;;;;;;;;5075894;27;45644;-79
2022/09/20 12:12:27;;;;;;;;;0.75;0.75;;;;;;;;5072598;28;45401;-80
2022/09/20 12:14:57;;;;;;;;;0.00;0.00;;;;;;;;5066963;27;45780;-78
2022/09/20 12:17:41;;;;;;;;;1.50;1.00;;;;;;;;5071271;27;45419;-80
2022/09/20 12:20:24;;;;;;;;;1.50;0.50;;;;;;;;5061150;28;45739;-80
2022/09/20 12:22:50;;;;;;;;;0.25;0.00;;;;;;;;5075063;27;45373;-80
2022/09/20 12:25:36;;;;;;;;;1.75;1.75;;;;;;;;5062561;27;45815;-81
2022/09/20 12:28:01;;;;;;;;;1.00;1.00;;;;;;;;5069409;28;45741;-80
2022/09/20 12:30:27;;;;;;;;;0.00;0.00;;;;;;;;5072496;28;45447;-81
2022/09/20 12:32:55;;;;;;;;;0.25;0.25;;;;;;;;5071529;27;45905;-80
2022/09/20 12:35:35;;;;;;;;;1.00;0.25;;;;;;;;5072122;28;45440;-80
2022/09/20 12:38:16;;;;;;;;;2.00;1.00;;;;;;;;5053164;28;45613;-82
2022/09/20 12:41:00;;;;;;;;;0.25;0.25;;;;;;;;5071819;27;46159;-81
2022/09/20 12:43:27;;;;;;;;;1.00;1.00;;;;;;;;5072785;28;45416;-80
2022/09/20 12:45:53;;;;;;;;;1.33;1.33;;;;;;;;5074288;27;45704;-81
2022/09/20 12:48:19;;;;;;;;;1.00;1.00;;;;;;;;5077388;28;45499;-79
2022/09/20 12:53:57;;;;;;;;;1.50;0.50;;;;;;;;5074682;28;45799;-80
2022/09/20 12:56:26;;;;;;;;;0.67;0.67;;;;;;;;5072588;27;45814;-71
2022/09/20 12:58:53;;;;;;;;;1.50;1.00;;;;;;;;5071412;28;45991;-72
2022/09/20 13:01:21;;;;;;;;;2.00;2.00;;;;;;;;5054903;28;47142;-72
2022/09/20 13:03:48;;;;;;;;;3.75;2.50;;;;;;;;5072501;27;45757;-70
2022/09/20 13:06:15;;;;;;;;;1.00;1.00;;;;;;;;5072375;27;45838;-80
2022/09/20 13:08:52;;;;;;;;;1.00;1.00;;;;;;;;5072225;27;45474;-79
2022/09/20 13:11:19;;;;;;;;;1.00;1.00;;;;;;;;5071911;27;45768;-80
2022/09/20 13:13:48;;;;;;;;;7.00;5.00;;;;;;;;5072487;27;45599;-79
2022/09/20 13:16:23;;;;;;;;;2.67;2.67;;;;;;;;5068667;27;45573;-81
2022/09/20 13:18:57;;;;;;;;;2.33;1.00;;;;;;;;5072549;27;45435;-81
2022/09/20 13:21:22;;;;;;;;;3.50;1.25;;;;;;;;5072259;27;46487;-81
2022/09/20 13:23:51;;;;;;;;;1.00;1.00;;;;;;;;5073333;27;45712;-80
2022/09/20 13:26:21;;;;;;;;;1.50;1.25;;;;;;;;5069677;28;45481;-79
2022/09/20 13:28:50;;;;;;;;;3.33;2.67;;;;;;;;5074176;28;45319;-79
2022/09/20 13:31:21;;;;;;;;;4.00;1.67;;;;;;;;5073643;28;46374;-81
2022/09/20 13:33:47;;;;;;;;;2.00;2.00;;;;;;;;5074885;27;45392;-81
2022/09/20 13:36:12;;;;;;;;;2.00;2.00;;;;;;;;5079704;27;45881;-80
2022/09/20 13:38:38;;;;;;;;;1.00;1.00;;;;;;;;5068132;27;45688;-83
2022/09/20 13:41:06;;;;;;;;;5.00;2.33;;;;;;;;5069548;27;45400;-81
2022/09/20 13:43:31;;;;;;;;;2.00;2.00;;;;;;;;5061279;27;45527;-79
2022/09/20 13:45:57;;;;;;;;;2.00;2.00;;;;;;;;5068101;28;45652;-81
2022/09/20 13:48:26;;;;;;;;;4.00;4.00;;;;;;;;5067144;28;45482;-80
2022/09/20 13:50:52;;;;;;;;;3.33;2.67;;;;;;;;5064516;27;45513;-82
2022/09/20 13:53:17;;;;;;;;;4.00;2.00;;;;;;;;5073496;27;45423;-81
2022/09/20 13:55:43;;;;;;;;;2.00;2.00;;;;;;;;5070496;28;45621;-80
2022/09/20 13:58:16;;;;;;;;;1.33;1.33;;;;;;;;5069572;27;45410;-79
2022/09/20 14:00:50;;;;;;;;;1.00;1.00;;;;;;;;5069000;27;45301;-79
2022/09/20 14:03:16;;;;;;;;;5.33;1.67;;;;;;;;5065917;27;45679;-80
2022/09/20 14:05:48;;;;;;;;;2.00;2.00;;;;;;;;5069107;27;45268;-81
2022/09/20 14:08:19;;;;;;;;;2.67;2.00;;;;;;;;5066848;27;45435;-81
2022/09/20 14:10:45;;;;;;;;;2.00;2.00;;;;;;;;5067999;28;46822;-82
2022/09/20 14:13:14;;;;;;;;;4.00;3.00;;;;;;;;5075572;27;45840;-81
2022/09/20 14:15:43;;;;;;;;;1.00;1.00;;;;;;;;5076966;28;45719;-80
2022/09/20 14:18:15;;;;;;;;;2.00;2.00;;;;;;;;5059528;27;45835;-83
2022/09/20 14:20:42;;;;;;;;;1.00;1.00;;;;;;;;5077739;28;46156;-82
2022/09/20 14:23:27;;;;;;;;;1.00;1.00;;;;;;;;5077021;27;45295;-82
2022/09/20 14:26:06;;;;;;;;;1.00;1.00;;;;;;;;5057712;27;44904;-81
2022/09/20 14:28:32;;;;;;;;;3.00;3.00;;;;;;;;5080181;27;45788;-81
2022/09/20 14:31:06;;;;;;;;;2.00;2.00;;;;;;;;5078905;27;45444;-81
2022/09/20 14:33:31;;;;;;;;;6.67;3.00;;;;;;;;5066156;27;45405;-82
2022/09/20 14:35:56;;;;;;;;;1.33;1.00;;;;;;;;5068200;28;45440;-82
2022/09/20 14:38:23;;;;;;;;;3.00;2.00;;;;;;;;5072915;27;45509;-77
2022/09/20 14:40:48;;;;;;;;;0.00;0.00;;;;;;;;5067454;27;46135;-82
2022/09/20 14:43:31;;;;;;;;;1.00;1.00;;;;;;;;5073006;27;45677;-75
2022/09/20 14:45:59;;;;;;;;;2.00;2.00;;;;;;;;5064172;27;45705;-75
2022/09/20 14:48:24;;;;;;;;;2.67;1.33;;;;;;;;5060098;27;45691;-76
2022/09/20 14:51:11;;;;;;;;;1.00;1.00;;;;;;;;5052995;27;45772;-78
2022/09/20 14:53:37;;;;;;;;;2.00;2.00;;;;;;;;5061220;28;45414;-77
2022/09/20 14:56:05;;;;;;;;;2.00;2.00;;;;;;;;5053926;27;45751;-74
2022/09/20 14:58:31;;;;;;;;;2.00;2.00;;;;;;;;5062981;27;45508;-73
2022/09/20 15:01:15;;;;;;;;;1.33;1.33;;;;;;;;5081532;27;45825;-77
2022/09/20 15:03:40;;;;;;;;;1.33;1.33;;;;;;;;5069324;27;45369;-78
2022/09/20 15:06:10;;;;;;;;;3.67;3.00;;;;;;;;5067966;27;45696;-78
2022/09/20 15:08:35;;;;;;;;;1.00;1.00;;;;;;;;5056413;28;45769;-77
2022/09/20 15:11:00;;;;;;;;;2.00;2.00;;;;;;;;5049539;28;46219;-74
2022/09/20 15:13:26;;;;;;;;;2.00;2.00;;;;;;;;5065820;27;45480;-78
2022/09/20 15:15:54;;;;;;;;;1.00;1.00;;;;;;;;5058751;28;45846;-77
2022/09/20 15:18:48;;;;;;;;;1.00;1.00;;;;;;;;5060337;27;45569;-75
2022/09/20 15:21:14;;;;;;;;;2.00;1.00;;;;;;;;5065625;27;45999;-81
2022/09/20 15:23:39;;;;;;;;;17.67;15.33;;;;;;;;5067599;27;45133;-77